createdAt,value
2022-10-18T00:02:09.625Z,14.00
2022-10-18T00:04:42.894Z,14.10
2022-10-18T00:07:15.840Z,14.10
2022-10-18T00:09:48.564Z,14.12
2022-10-18T00:12:21.305Z,14.20
2022-10-18T00:14:54.694Z,14.20
2022-10-18T00:17:27.646Z,14.30
2022-10-18T00:20:00.769Z,14.40
2022-10-18T00:22:35.115Z,14.50
2022-10-18T00:25:10.282Z,14.56
2022-10-18T00:27:43.176Z,14.50
2022-10-18T00:30:16.162Z,14.50
2022-10-18T00:32:49.113Z,14.60
2022-10-18T00:35:22.116Z,14.60
2022-10-18T00:37:54.929Z,14.70
2022-10-18T00:40:27.674Z,14.70
2022-10-18T00:43:00.466Z,14.70
2022-10-18T00:45:33.632Z,14.60
2022-10-18T00:48:07.872Z,14.60
2022-10-18T00:50:41.632Z,14.50
2022-10-18T00:53:20.375Z,14.50
2022-10-18T00:55:53.743Z,14.40
2022-10-18T00:58:26.734Z,14.40
2022-10-18T01:00:59.636Z,14.30
2022-10-18T01:03:32.660Z,14.30
2022-10-18T01:06:05.735Z,14.20
2022-10-18T01:09:15.870Z,14.10
2022-10-18T01:12:10.591Z,14.10
2022-10-18T01:14:52.235Z,14.10
2022-10-18T01:17:32.763Z,14.00
2022-10-18T01:20:39.526Z,14.00
2022-10-18T01:23:20.465Z,14.00
2022-10-18T01:26:05.865Z,14.00
2022-10-18T01:28:55.869Z,14.00
2022-10-18T01:31:34.265Z,14.00
2022-10-18T01:34:11.053Z,14.02
2022-10-18T01:36:47.892Z,14.10
2022-10-18T01:39:25.890Z,14.10
2022-10-18T01:42:00.987Z,14.10
2022-10-18T01:44:36.342Z,14.14
2022-10-18T01:47:12.192Z,14.12
2022-10-18T01:49:45.013Z,14.18
2022-10-18T01:52:19.174Z,14.14
2022-10-18T01:54:53.254Z,14.10
2022-10-18T01:57:35.934Z,14.10
2022-10-18T02:00:14.941Z,14.10
2022-10-18T02:02:53.970Z,14.10
2022-10-18T02:05:34.232Z,14.08
2022-10-18T02:08:22.865Z,14.00
2022-10-18T02:11:02.117Z,13.98
2022-10-18T02:13:38.737Z,13.90
2022-10-18T02:16:14.758Z,13.88
2022-10-18T02:19:00.877Z,13.80
2022-10-18T02:21:34.452Z,13.70
2022-10-18T02:24:09.459Z,13.70
2022-10-18T02:26:42.547Z,13.68
2022-10-18T02:29:15.464Z,13.62
2022-10-18T02:31:51.240Z,13.60
2022-10-18T02:34:28.529Z,13.60
2022-10-18T02:37:03.212Z,13.60
2022-10-18T02:39:38.974Z,13.60
2022-10-18T02:42:15.222Z,13.52
2022-10-18T02:44:47.964Z,13.60
2022-10-18T02:47:20.831Z,13.60
2022-10-18T02:49:53.714Z,13.60
2022-10-18T02:52:26.563Z,13.54
2022-10-18T02:54:59.369Z,13.50
2022-10-18T02:57:32.680Z,13.50
2022-10-18T03:00:07.247Z,13.44
2022-10-18T03:02:40.058Z,13.40
2022-10-18T03:05:13.081Z,13.30
2022-10-18T03:07:45.825Z,13.20
2022-10-18T03:10:18.628Z,13.10
2022-10-18T03:12:51.378Z,13.00
2022-10-18T03:15:24.169Z,12.98
2022-10-18T03:17:57.240Z,12.90
2022-10-18T03:20:30.238Z,12.80
2022-10-18T03:23:03.490Z,12.80
2022-10-18T03:25:36.340Z,12.80
2022-10-18T03:28:09.701Z,12.70
2022-10-18T03:30:42.738Z,12.70
2022-10-18T03:33:15.712Z,12.60
2022-10-18T03:35:48.505Z,12.50
2022-10-18T03:38:21.271Z,12.40
2022-10-18T03:40:54.088Z,12.40
2022-10-18T03:43:26.964Z,12.30
2022-10-18T03:45:59.862Z,12.20
2022-10-18T03:48:32.699Z,12.18
2022-10-18T03:51:05.688Z,12.10
2022-10-18T03:53:38.593Z,12.10
2022-10-18T03:56:11.622Z,12.10
2022-10-18T03:58:44.551Z,12.10
2022-10-18T04:01:17.549Z,12.02
2022-10-18T04:03:50.347Z,12.00
2022-10-18T04:06:23.068Z,11.98
2022-10-18T04:08:57.578Z,11.90
2022-10-18T04:11:30.387Z,11.80
2022-10-18T04:14:03.453Z,11.80
2022-10-18T04:19:13.983Z,11.70
2022-10-18T04:21:46.783Z,11.70
2022-10-18T04:24:20.784Z,11.60
2022-10-18T04:26:53.642Z,11.60
2022-10-18T04:29:26.760Z,11.58
2022-10-18T04:31:59.535Z,11.50
2022-10-18T04:34:32.494Z,11.50
2022-10-18T04:37:05.454Z,11.40
2022-10-18T04:39:38.243Z,11.40
2022-10-18T04:42:11.020Z,11.40
2022-10-18T04:44:43.796Z,11.30
2022-10-18T04:47:16.697Z,11.30
2022-10-18T04:49:52.347Z,11.30
2022-10-18T04:52:25.182Z,11.26
2022-10-18T04:54:57.980Z,11.20
2022-10-18T04:57:31.160Z,11.20
2022-10-18T05:00:04.421Z,11.18
2022-10-18T05:02:37.228Z,11.10
2022-10-18T05:05:13.950Z,11.10
2022-10-18T05:07:47.110Z,11.10
2022-10-18T05:10:22.019Z,11.10
2022-10-18T05:12:54.854Z,11.10
2022-10-18T05:15:27.830Z,11.10
2022-10-18T05:18:00.613Z,11.04
2022-10-18T05:20:33.535Z,11.08
2022-10-18T05:23:06.314Z,11.10
2022-10-18T05:25:40.880Z,11.10
2022-10-18T05:28:38.001Z,11.10
2022-10-18T05:31:08.726Z,11.10
2022-10-18T05:33:41.963Z,11.10
2022-10-18T05:36:15.160Z,11.10
2022-10-18T05:38:48.456Z,11.10
2022-10-18T05:41:21.351Z,11.20
2022-10-18T05:43:54.270Z,11.20
2022-10-18T05:46:27.195Z,11.30
2022-10-18T05:48:59.975Z,11.30
2022-10-18T05:51:32.820Z,11.40
2022-10-18T05:54:05.677Z,11.60
2022-10-18T05:59:16.568Z,11.80
2022-10-18T06:01:49.432Z,11.84
2022-10-18T06:04:22.513Z,11.90
2022-10-18T06:06:56.289Z,12.00
2022-10-18T06:09:30.797Z,12.10
2022-10-18T06:12:03.613Z,12.20
2022-10-18T06:14:36.764Z,12.34
2022-10-18T06:17:09.549Z,12.50
2022-10-18T06:19:44.467Z,12.70
2022-10-18T06:22:17.374Z,12.80
2022-10-18T06:24:55.071Z,12.90
2022-10-18T06:27:31.952Z,13.10
2022-10-18T06:30:05.192Z,13.20
2022-10-18T06:32:38.133Z,13.40
2022-10-18T06:35:12.319Z,13.50
2022-10-18T06:37:45.249Z,13.60
2022-10-18T06:40:18.413Z,13.70
2022-10-18T06:43:00.335Z,13.80
2022-10-18T06:45:33.971Z,13.90
2022-10-18T06:48:07.414Z,14.00
2022-10-18T06:50:40.409Z,14.10
2022-10-18T06:53:13.406Z,14.10
2022-10-18T06:55:46.918Z,14.10
2022-10-18T06:58:19.736Z,14.10
2022-10-18T07:00:52.731Z,14.20
2022-10-18T07:03:26.352Z,14.20
2022-10-18T07:06:03.141Z,14.30
2022-10-18T07:08:36.275Z,14.40
2022-10-18T07:11:10.563Z,14.60
2022-10-18T07:13:43.629Z,14.70
2022-10-18T07:16:18.728Z,14.80
2022-10-18T07:18:52.985Z,14.90
2022-10-18T07:21:27.501Z,15.10
2022-10-18T07:24:01.425Z,15.26
2022-10-18T07:26:36.569Z,15.40
2022-10-18T07:29:13.381Z,15.50
2022-10-18T07:31:46.482Z,15.76
2022-10-18T07:34:19.795Z,16.00
2022-10-18T07:36:52.535Z,16.20
2022-10-18T07:39:25.420Z,16.40
2022-10-18T07:41:58.767Z,16.60
2022-10-18T07:44:31.669Z,16.80
2022-10-18T07:47:04.445Z,17.06
2022-10-18T07:49:37.315Z,17.30
2022-10-18T07:52:10.125Z,17.66
2022-10-18T07:54:42.995Z,18.12
2022-10-18T07:57:15.946Z,18.64
2022-10-18T07:59:52.406Z,19.10
2022-10-18T08:02:25.463Z,19.58
2022-10-18T08:04:58.397Z,20.06
2022-10-18T08:07:33.353Z,20.40
2022-10-18T08:10:07.104Z,20.78
2022-10-18T08:12:39.902Z,21.10
2022-10-18T08:15:14.380Z,21.48
2022-10-18T08:17:47.258Z,21.80
2022-10-18T08:20:30.519Z,22.20
2022-10-18T08:23:03.992Z,22.70
2022-10-18T08:28:14.711Z,23.36
2022-10-18T08:30:47.707Z,23.78
2022-10-18T08:33:20.523Z,24.16
2022-10-18T08:36:01.307Z,24.60
2022-10-18T08:38:36.048Z,25.04
2022-10-18T08:41:50.042Z,25.50
2022-10-18T08:44:26.555Z,25.90
2022-10-18T08:47:05.412Z,26.10
2022-10-18T08:49:46.845Z,26.30
2022-10-18T08:52:36.866Z,26.50
2022-10-18T08:55:17.284Z,26.50
2022-10-18T08:57:52.067Z,26.76
2022-10-18T09:00:30.179Z,26.98
2022-10-18T09:03:23.889Z,27.10
2022-10-18T09:06:03.347Z,27.42
2022-10-18T09:08:56.271Z,27.80
2022-10-18T09:11:48.258Z,28.26
2022-10-18T09:14:50.708Z,28.64
2022-10-18T09:17:33.741Z,28.98
2022-10-18T09:20:23.132Z,29.02
2022-10-18T09:23:13.380Z,29.10
2022-10-18T09:25:50.167Z,29.58
2022-10-18T09:28:35.603Z,30.12
2022-10-18T09:31:15.526Z,30.60
2022-10-18T09:33:55.292Z,30.32
2022-10-18T09:36:28.109Z,29.80
2022-10-18T09:39:04.792Z,29.60
2022-10-18T09:41:45.959Z,29.80
2022-10-18T09:44:23.792Z,29.32
2022-10-18T09:47:01.652Z,28.90
2022-10-18T09:49:39.654Z,28.40
2022-10-18T09:52:26.845Z,28.10
2022-10-18T09:55:04.548Z,28.44
2022-10-18T09:57:41.659Z,29.24
2022-10-18T10:00:24.342Z,30.28
2022-10-18T10:02:57.808Z,31.26
2022-10-18T10:05:30.982Z,31.72
2022-10-18T10:08:04.977Z,32.26
2022-10-18T10:10:40.248Z,32.66
2022-10-18T10:13:26.372Z,32.80
2022-10-18T10:16:02.602Z,32.38
2022-10-18T10:18:37.997Z,31.62
2022-10-18T10:21:17.331Z,31.50
2022-10-18T10:23:55.168Z,31.30
2022-10-18T10:26:33.476Z,30.54
2022-10-18T10:29:43.720Z,29.86
2022-10-18T10:32:19.998Z,29.08
2022-10-18T10:34:53.385Z,28.98
2022-10-18T10:37:40.841Z,28.78
2022-10-18T10:40:25.279Z,28.44
2022-10-18T10:43:36.534Z,29.22
2022-10-18T10:46:13.227Z,29.68
2022-10-18T10:49:04.253Z,29.96
2022-10-18T10:51:44.426Z,30.32
2022-10-18T10:54:21.717Z,30.32
2022-10-18T10:57:02.417Z,29.54
2022-10-18T10:59:44.757Z,28.94
2022-10-18T11:02:27.660Z,28.14
2022-10-18T11:05:24.884Z,27.30
2022-10-18T11:08:00.809Z,26.50
2022-10-18T11:10:40.087Z,26.00
2022-10-18T11:13:33.197Z,25.60
2022-10-18T11:16:15.107Z,25.38
2022-10-18T11:18:52.615Z,25.18
2022-10-18T11:21:29.249Z,25.26
2022-10-18T11:24:05.025Z,25.60
2022-10-18T11:26:53.841Z,26.00
2022-10-18T11:29:44.886Z,25.80
2022-10-18T11:32:27.378Z,25.70
2022-10-18T11:35:21.258Z,25.68
2022-10-18T11:38:13.957Z,25.40
2022-10-18T11:41:01.043Z,25.10
2022-10-18T11:44:01.047Z,25.16
2022-10-18T11:46:52.142Z,25.60
2022-10-18T11:49:54.098Z,25.50
2022-10-18T11:52:36.805Z,25.60
2022-10-18T11:55:33.434Z,25.70
2022-10-18T11:58:19.606Z,26.22
2022-10-18T12:00:58.560Z,27.24
2022-10-18T12:03:47.076Z,28.70
2022-10-18T12:06:25.186Z,30.46
2022-10-18T12:09:02.605Z,32.12
2022-10-18T12:11:45.438Z,33.00
2022-10-18T12:14:28.043Z,32.08
2022-10-18T12:17:39.917Z,31.02
2022-10-18T12:20:00.557Z,30.34
2022-10-18T12:22:39.856Z,29.30
2022-10-18T12:25:19.251Z,28.34
2022-10-18T12:28:03.650Z,27.44
2022-10-18T12:30:45.580Z,26.72
2022-10-18T12:33:28.375Z,25.98
2022-10-18T12:36:12.932Z,25.38
2022-10-18T12:38:49.410Z,24.90
2022-10-18T12:41:27.089Z,24.50
2022-10-18T12:44:05.324Z,24.20
2022-10-18T12:46:52.964Z,23.90
2022-10-18T12:49:31.504Z,23.60
2022-10-18T12:52:08.622Z,23.30
2022-10-18T12:54:42.468Z,23.10
2022-10-18T12:57:26.529Z,23.00
2022-10-18T12:59:59.487Z,22.90
2022-10-18T13:02:36.400Z,22.90
2022-10-18T13:06:01.574Z,22.90
2022-10-18T13:08:46.003Z,23.00
2022-10-18T13:11:36.992Z,23.10
2022-10-18T13:15:05.996Z,23.30
2022-10-18T13:17:57.429Z,23.44
2022-10-18T13:20:38.589Z,23.50
2022-10-18T13:23:37.119Z,23.76
2022-10-18T13:26:24.515Z,24.00
2022-10-18T13:29:07.152Z,24.30
2022-10-18T13:31:46.449Z,24.40
2022-10-18T13:34:33.191Z,24.42
2022-10-18T13:37:19.936Z,24.50
2022-10-18T13:40:14.308Z,24.30
2022-10-18T13:42:47.380Z,24.00
2022-10-18T13:45:55.541Z,23.70
2022-10-18T13:48:52.130Z,23.50
2022-10-18T13:51:47.157Z,23.40
2022-10-18T13:54:47.094Z,23.30
2022-10-18T13:57:39.213Z,23.00
2022-10-18T14:00:33.972Z,22.66
2022-10-18T14:03:55.678Z,22.36
2022-10-18T14:06:24.988Z,22.00
2022-10-18T14:09:09.746Z,21.74
2022-10-18T14:11:55.260Z,21.50
2022-10-18T14:14:36.588Z,21.30
2022-10-18T14:17:20.939Z,21.10
2022-10-18T14:19:58.557Z,20.94
2022-10-18T14:22:36.715Z,20.70
2022-10-18T14:25:30.709Z,20.48
2022-10-18T14:28:18.451Z,20.20
2022-10-18T14:31:02.228Z,19.90
2022-10-18T14:33:42.387Z,19.60
2022-10-18T14:36:24.438Z,19.30
2022-10-18T14:39:00.493Z,18.94
2022-10-18T14:41:35.261Z,18.60
2022-10-18T14:44:26.307Z,18.34
2022-10-18T14:47:05.700Z,18.08
2022-10-18T14:49:45.448Z,17.80
2022-10-18T14:52:24.066Z,17.58
2022-10-18T14:55:01.727Z,17.40
2022-10-18T14:57:38.311Z,17.20
2022-10-18T15:03:01.802Z,16.80
2022-10-18T15:05:34.652Z,16.64
2022-10-18T15:08:07.907Z,16.50
2022-10-18T15:10:40.908Z,16.30
2022-10-18T15:13:15.610Z,16.20
2022-10-18T15:15:49.210Z,16.10
2022-10-18T15:18:26.646Z,16.00
2022-10-18T15:21:25.582Z,15.90
2022-10-18T15:24:22.054Z,15.70
2022-10-18T15:26:56.404Z,15.60
2022-10-18T15:29:33.308Z,15.50
2022-10-18T15:32:20.908Z,15.48
2022-10-18T15:34:54.426Z,15.40
2022-10-18T15:37:41.427Z,15.30
2022-10-18T15:40:38.166Z,15.20
2022-10-18T15:43:39.968Z,15.20
2022-10-18T15:46:34.114Z,15.10
2022-10-18T15:49:56.743Z,15.04
2022-10-18T15:52:46.364Z,15.00
2022-10-18T15:55:49.277Z,14.90
2022-10-18T15:58:39.216Z,14.90
2022-10-18T16:01:18.365Z,14.84
2022-10-18T16:06:30.609Z,14.80
2022-10-18T16:09:03.635Z,14.80
2022-10-18T16:11:36.446Z,14.80
2022-10-18T16:14:09.321Z,14.80
2022-10-18T16:16:42.582Z,14.80
2022-10-18T16:19:18.901Z,14.78
2022-10-18T16:21:52.801Z,14.80
2022-10-18T16:24:26.115Z,14.80
2022-10-18T16:26:58.939Z,14.80
2022-10-18T16:29:33.201Z,14.80
2022-10-18T16:32:06.592Z,14.80
2022-10-18T16:34:39.591Z,14.80
2022-10-18T16:37:13.468Z,14.80
2022-10-18T16:39:46.572Z,14.80
2022-10-18T16:42:19.313Z,14.80
2022-10-18T16:44:53.836Z,14.80
2022-10-18T16:47:26.616Z,14.80
2022-10-18T16:50:04.093Z,14.80
2022-10-18T16:52:39.434Z,14.80
2022-10-18T16:55:21.118Z,14.80
2022-10-18T16:57:55.174Z,14.80
2022-10-18T17:00:28.187Z,14.80
2022-10-18T17:03:00.927Z,14.80
2022-10-18T17:05:34.073Z,14.80
2022-10-18T17:08:07.226Z,14.80
2022-10-18T17:10:40.157Z,14.80
2022-10-18T17:13:12.869Z,14.70
2022-10-18T17:15:46.730Z,14.72
2022-10-18T17:18:23.370Z,14.70
2022-10-18T17:20:56.738Z,14.70
2022-10-18T17:23:29.776Z,14.70
2022-10-18T17:26:26.247Z,14.70
2022-10-18T17:28:57.755Z,14.70
2022-10-18T17:31:31.962Z,14.70
2022-10-18T17:34:05.204Z,14.70
2022-10-18T17:36:38.341Z,14.70
2022-10-18T17:39:13.464Z,14.70
2022-10-18T17:41:46.296Z,14.64
2022-10-18T17:44:19.111Z,14.60
2022-10-18T17:46:52.264Z,14.60
2022-10-18T17:49:25.230Z,14.60
2022-10-18T17:51:58.151Z,14.60
2022-10-18T17:54:31.301Z,14.60
2022-10-18T17:57:04.389Z,14.60
2022-10-18T17:59:37.328Z,14.60
2022-10-18T18:02:10.849Z,14.60
2022-10-18T18:04:43.813Z,14.60
2022-10-18T18:07:16.573Z,14.60
2022-10-18T18:09:49.371Z,14.60
2022-10-18T18:12:22.476Z,14.60
2022-10-18T18:14:55.516Z,14.60
2022-10-18T18:17:34.400Z,14.60
2022-10-18T18:20:14.729Z,14.60
2022-10-18T18:22:47.821Z,14.60
2022-10-18T18:25:20.689Z,14.60
2022-10-18T18:27:53.561Z,14.60
2022-10-18T18:30:26.493Z,14.60
2022-10-18T18:32:59.371Z,14.60
2022-10-18T18:35:33.076Z,14.60
2022-10-18T18:38:06.002Z,14.60
2022-10-18T18:40:38.882Z,14.60
2022-10-18T18:43:22.878Z,14.60
2022-10-18T18:45:56.558Z,14.60
2022-10-18T18:48:32.714Z,14.60
2022-10-18T18:51:06.608Z,14.60
2022-10-18T18:53:40.368Z,14.60
2022-10-18T18:56:16.279Z,14.60
2022-10-18T18:58:49.809Z,14.60
2022-10-18T19:01:25.123Z,14.60
2022-10-18T19:03:59.414Z,14.60
2022-10-18T19:06:34.346Z,14.60
2022-10-18T19:09:12.971Z,14.60
2022-10-18T19:11:46.776Z,14.60
2022-10-18T19:14:20.173Z,14.60
2022-10-18T19:16:54.717Z,14.60
2022-10-18T19:19:29.352Z,14.60
2022-10-18T19:22:05.124Z,14.60
2022-10-18T19:24:38.081Z,14.60
2022-10-18T19:27:13.203Z,14.60
2022-10-18T19:29:47.512Z,14.60
2022-10-18T19:32:20.427Z,14.60
2022-10-18T19:34:53.544Z,14.60
2022-10-18T19:37:26.283Z,14.60
2022-10-18T19:39:59.634Z,14.60
2022-10-18T19:42:32.849Z,14.60
2022-10-18T19:45:06.606Z,14.60
2022-10-18T19:47:41.310Z,14.60
2022-10-18T19:50:14.542Z,14.60
2022-10-18T19:52:47.458Z,14.54
2022-10-18T19:55:20.550Z,14.60
2022-10-18T19:57:53.268Z,14.60
2022-10-18T20:00:26.125Z,14.60
2022-10-18T20:02:58.964Z,14.60
2022-10-18T20:05:31.746Z,14.60
2022-10-18T20:08:04.588Z,14.60
2022-10-18T20:10:37.596Z,14.60
2022-10-18T20:13:10.396Z,14.60
2022-10-18T20:15:43.233Z,14.60
2022-10-18T20:18:16.496Z,14.60
2022-10-18T20:20:50.189Z,14.60
2022-10-18T20:23:23.678Z,14.60
2022-10-18T20:26:05.232Z,14.60
2022-10-18T20:28:38.643Z,14.60
2022-10-18T20:31:17.076Z,14.60
2022-10-18T20:33:54.558Z,14.60
2022-10-18T20:36:28.227Z,14.60
2022-10-18T20:39:01.572Z,14.60
2022-10-18T20:41:38.147Z,14.60
2022-10-18T20:44:16.923Z,14.60
2022-10-18T20:46:49.977Z,14.58
2022-10-18T20:49:22.896Z,14.58
2022-10-18T20:51:55.699Z,14.56
2022-10-18T20:54:28.755Z,14.60
2022-10-18T20:57:01.632Z,14.60
2022-10-18T20:59:34.802Z,14.60
2022-10-18T21:02:08.064Z,14.60
2022-10-18T21:04:42.309Z,14.60
2022-10-18T21:07:15.230Z,14.60
2022-10-18T21:09:48.053Z,14.60
2022-10-18T21:12:20.874Z,14.64
2022-10-18T21:14:54.189Z,14.64
2022-10-18T21:17:26.972Z,14.70
2022-10-18T21:20:01.204Z,14.70
2022-10-18T21:22:34.397Z,14.70
2022-10-18T21:25:09.012Z,14.70
2022-10-18T21:27:41.860Z,14.70
2022-10-18T21:30:16.102Z,14.70
2022-10-18T21:32:52.601Z,14.70
2022-10-18T21:35:25.655Z,14.70
2022-10-18T21:37:58.362Z,14.70
2022-10-18T21:40:31.224Z,14.70
2022-10-18T21:43:03.990Z,14.70
2022-10-18T21:45:36.718Z,14.70
2022-10-18T21:48:10.081Z,14.70
2022-10-18T21:50:43.077Z,14.70
2022-10-18T21:53:16.831Z,14.70
2022-10-18T21:55:49.666Z,14.70
2022-10-18T21:58:22.664Z,14.70
2022-10-18T22:00:55.531Z,14.70
2022-10-18T22:03:28.520Z,14.70
2022-10-18T22:06:07.829Z,14.70
2022-10-18T22:08:40.671Z,14.70
2022-10-18T22:11:14.606Z,14.70
2022-10-18T22:13:47.694Z,14.70
2022-10-18T22:16:21.020Z,14.66
2022-10-18T22:18:58.018Z,14.66
2022-10-18T22:21:32.155Z,14.70
2022-10-18T22:24:07.701Z,14.64
2022-10-18T22:26:42.883Z,14.62
2022-10-18T22:29:18.886Z,14.60
2022-10-18T22:31:53.883Z,14.60
2022-10-18T22:34:29.147Z,14.60
2022-10-18T22:37:02.406Z,14.50
2022-10-18T22:39:35.699Z,14.50
2022-10-18T22:42:08.818Z,14.50
2022-10-18T22:44:41.600Z,14.50
2022-10-18T22:47:14.383Z,14.50
2022-10-18T22:49:47.379Z,14.50
2022-10-18T22:52:20.186Z,14.50
2022-10-18T22:54:53.035Z,14.42
2022-10-18T22:57:25.881Z,14.40
2022-10-18T22:59:58.654Z,14.40
2022-10-18T23:02:31.779Z,14.30
2022-10-18T23:05:04.840Z,14.20
2022-10-18T23:07:37.719Z,14.20
2022-10-18T23:10:11.506Z,14.10
2022-10-18T23:12:44.262Z,14.10
2022-10-18T23:15:17.100Z,14.00
2022-10-18T23:17:50.282Z,14.00
2022-10-18T23:20:23.254Z,14.00
2022-10-18T23:22:56.285Z,13.90
2022-10-18T23:25:29.392Z,13.90
2022-10-18T23:28:02.628Z,13.90
2022-10-18T23:30:35.520Z,13.84
2022-10-18T23:33:08.498Z,13.80
2022-10-18T23:35:41.288Z,13.80
2022-10-18T23:38:14.112Z,13.80
2022-10-18T23:40:46.877Z,13.80
2022-10-18T23:43:19.719Z,13.80
2022-10-18T23:45:52.502Z,13.80
2022-10-18T23:48:25.500Z,13.70
2022-10-18T23:50:58.408Z,13.60
2022-10-18T23:53:31.676Z,13.54
2022-10-18T23:56:06.924Z,13.50
2022-10-18T23:58:40.978Z,13.40
